Time;durP1;ratioP1;P1;durP2;ratioP2;P2;SDS_P1;SDS_P2;PMS_P1;PMS_P2;Temp;Humidity;BMP_temperature;BMP_pressure;BME280_temperature;BME280_humidity;BME280_pressure;Samples;Min_cycle;Max_cycle;Signal;HPM_P1;HPM_P2
2021/07/26 00:00:44;;;;;;;8.45;3.70;;;;;;;15.46;100.00;95823.00;5074820;28;20088;-82
2021/07/26 00:03:10;;;;;;;4.88;2.95;;;;;;;15.47;100.00;95816.72;5047394;28;20028;-82
2021/07/26 00:05:35;;;;;;;5.82;3.50;;;;;;;15.45;100.00;95808.94;5052747;28;20027;-83
2021/07/26 00:08:01;;;;;;;7.72;3.67;;;;;;;15.45;100.00;95810.78;5063421;28;20037;-82
2021/07/26 00:10:29;;;;;;;5.57;3.08;;;;;;;15.47;100.00;95812.22;5067750;28;20017;-82
2021/07/26 00:12:55;;;;;;;7.22;3.28;;;;;;;15.49;99.92;95817.31;5050223;28;20033;-83
2021/07/26 00:15:21;;;;;;;7.15;3.17;;;;;;;15.26;100.00;95804.41;5067377;28;20390;-83
2021/07/26 00:17:46;;;;;;;7.65;3.67;;;;;;;15.21;100.00;95807.66;5081660;28;20047;-83
2021/07/26 00:20:15;;;;;;;4.80;3.03;;;;;;;15.29;100.00;95812.78;5068681;28;20036;-83
2021/07/26 00:22:43;;;;;;;5.38;3.17;;;;;;;15.35;100.00;95799.75;5050102;28;20086;-82
2021/07/26 00:25:13;;;;;;;6.80;3.63;;;;;;;15.35;100.00;95794.44;5066540;28;20013;-83
2021/07/26 00:28:06;;;;;;;6.30;3.22;;;;;;;15.26;100.00;95786.69;5062646;28;20098;-82
2021/07/26 00:30:36;;;;;;;6.95;3.78;;;;;;;15.17;100.00;95787.06;5042620;28;20040;-82
2021/07/26 00:33:37;;;;;;;7.32;4.05;;;;;;;15.10;100.00;95792.34;5056960;28;20056;-82
2021/07/26 00:36:03;;;;;;;7.40;4.15;;;;;;;15.05;100.00;95784.16;5060161;28;20632;-82
2021/07/26 00:38:29;;;;;;;8.85;3.85;;;;;;;15.02;100.00;95801.28;5063007;28;20026;-82
2021/07/26 00:40:55;;;;;;;8.05;4.13;;;;;;;15.02;100.00;95797.78;5074701;28;20115;-82
2021/07/26 00:43:21;;;;;;;6.40;3.90;;;;;;;15.01;100.00;95799.63;5074905;28;20028;-83
2021/07/26 00:45:51;;;;;;;7.75;4.05;;;;;;;14.97;100.00;95810.81;5050306;28;20036;-82
2021/07/26 00:48:16;;;;;;;6.72;4.10;;;;;;;14.94;100.00;95811.22;5058842;28;20025;-81
2021/07/26 00:50:42;;;;;;;7.43;4.78;;;;;;;14.95;100.00;95818.94;5064815;28;20481;-83
2021/07/26 00:53:08;;;;;;;7.38;4.15;;;;;;;14.98;100.00;95813.25;5051996;28;20680;-82
2021/07/26 00:55:34;;;;;;;8.35;4.00;;;;;;;15.03;100.00;95817.97;5046510;28;20037;-82
2021/07/26 00:58:25;;;;;;;7.65;3.85;;;;;;;15.15;100.00;95811.09;5054484;28;20162;-82
2021/07/26 01:00:56;;;;;;;5.85;3.70;;;;;;;15.23;100.00;95818.88;5075271;28;20148;-83
2021/07/26 01:03:31;;;;;;;7.43;3.95;;;;;;;15.27;100.00;95828.06;5062169;28;20848;-82
2021/07/26 01:05:57;;;;;;;7.63;4.30;;;;;;;15.29;100.00;95833.97;5064402;28;20078;-83
2021/07/26 01:08:23;;;;;;;8.80;4.22;;;;;;;15.41;100.00;95831.56;5048418;28;20033;-82
2021/07/26 01:10:49;;;;;;;5.88;3.65;;;;;;;15.44;100.00;95835.66;5042862;28;20025;-83
2021/07/26 01:13:16;;;;;;;7.55;3.55;;;;;;;15.42;100.00;95832.38;5065074;28;20043;-81
2021/07/26 01:15:42;;;;;;;7.18;3.70;;;;;;;15.37;100.00;95829.50;5049969;28;20375;-82
2021/07/26 01:18:27;;;;;;;6.53;3.42;;;;;;;15.33;100.00;95832.56;5046823;28;20390;-81
2021/07/26 01:21:09;;;;;;;10.02;3.92;;;;;;;15.30;100.00;95837.44;5079577;28;20397;-81
2021/07/26 01:23:40;;;;;;;7.03;3.67;;;;;;;15.16;100.00;95836.56;5051854;28;20059;-82
2021/07/26 01:26:08;;;;;;;5.68;3.80;;;;;;;15.12;100.00;95843.25;5063302;28;20020;-81
2021/07/26 01:28:41;;;;;;;8.57;3.63;;;;;;;15.16;100.00;95841.88;5076519;28;20028;-82
2021/07/26 01:31:07;;;;;;;7.30;3.53;;;;;;;15.24;100.00;95841.69;5080838;28;20036;-82
2021/07/26 01:33:33;;;;;;;6.82;3.30;;;;;;;15.31;100.00;95836.41;5071817;28;20040;-82
2021/07/26 01:36:00;;;;;;;9.75;3.97;;;;;;;15.31;100.00;95831.94;5050153;28;20035;-81
2021/07/26 01:38:27;;;;;;;10.13;4.22;;;;;;;15.33;100.00;95837.03;5038213;28;20036;-82
2021/07/26 01:40:54;;;;;;;5.93;3.20;;;;;;;15.29;100.00;95833.97;5033639;28;20094;-82
2021/07/26 01:43:24;;;;;;;7.75;3.47;;;;;;;15.35;100.00;95836.84;5032301;28;20466;-81
2021/07/26 01:46:25;;;;;;;8.43;3.83;;;;;;;15.32;100.00;95838.88;5018067;28;20032;-82
2021/07/26 01:53:24;;;;;;;6.95;3.83;;;;;;;15.42;100.00;95838.47;5050133;28;20036;-82
2021/07/26 01:56:05;;;;;;;7.20;4.03;;;;;;;15.36;100.00;95833.16;5035221;28;20087;-83
2021/07/26 01:58:31;;;;;;;8.13;3.58;;;;;;;15.36;100.00;95836.66;5030432;28;20794;-83
2021/07/26 02:01:09;;;;;;;7.10;4.25;;;;;;;15.33;100.00;95835.22;5038963;28;20021;-83
2021/07/26 02:04:00;;;;;;;7.85;3.65;;;;;;;15.38;100.00;95831.94;5035755;28;20041;-83
2021/07/26 02:06:29;;;;;;;7.93;4.50;;;;;;;15.33;100.00;95829.09;5043505;28;20040;-83
2021/07/26 02:09:06;;;;;;;7.28;3.80;;;;;;;15.38;100.00;95825.84;5064011;28;20066;-82
2021/07/26 02:11:41;;;;;;;10.18;4.32;;;;;;;15.36;100.00;95817.25;5052151;28;20033;-83
2021/07/26 02:14:11;;;;;;;7.22;3.80;;;;;;;15.40;100.00;95821.97;5048438;28;20041;-82
2021/07/26 02:16:42;;;;;;;8.60;4.53;;;;;;;15.39;100.00;95816.88;5053585;28;20039;-82
2021/07/26 02:19:13;;;;;;;8.95;4.35;;;;;;;15.38;100.00;95809.94;5055741;28;20044;-82
2021/07/26 02:21:38;;;;;;;7.97;3.70;;;;;;;15.37;100.00;95811.78;5049196;28;20072;-82
2021/07/26 02:24:07;;;;;;;9.55;4.20;;;;;;;15.36;100.00;95820.75;5045296;28;20049;-82
2021/07/26 02:26:33;;;;;;;10.48;4.13;;;;;;;15.35;100.00;95813.00;5046996;28;20041;-82
2021/07/26 02:28:59;;;;;;;6.28;3.80;;;;;;;15.38;100.00;95820.53;5053812;28;20555;-83
2021/07/26 02:31:26;;;;;;;7.03;3.70;;;;;;;15.35;100.00;95813.00;5056032;28;20036;-82
2021/07/26 02:33:57;;;;;;;6.38;3.85;;;;;;;15.38;100.00;95812.59;5050459;28;20036;-82
2021/07/26 02:36:23;;;;;;;6.53;3.72;;;;;;;15.36;100.00;95828.69;5051995;28;20372;-82
2021/07/26 02:38:48;;;;;;;9.13;4.35;;;;;;;15.34;100.00;95820.13;5065974;28;20025;-82
2021/07/26 02:41:33;;;;;;;6.82;4.25;;;;;;;15.31;100.00;95823.97;5053588;28;20112;-82
2021/07/26 02:44:05;;;;;;;7.70;5.03;;;;;;;15.32;100.00;95823.00;5051299;28;20445;-82
2021/07/26 02:46:31;;;;;;;7.10;4.53;;;;;;;15.29;100.00;95826.03;5036411;28;20095;-82
2021/07/26 02:48:57;;;;;;;7.22;4.55;;;;;;;15.30;100.00;95824.19;5059488;28;20421;-82
2021/07/26 02:51:22;;;;;;;6.35;4.05;;;;;;;15.31;100.00;95823.97;5050814;28;20071;-82
2021/07/26 02:53:48;;;;;;;8.05;4.13;;;;;;;15.34;100.00;95825.44;5033826;28;20025;-83
2021/07/26 02:56:14;;;;;;;8.05;4.10;;;;;;;15.32;100.00;95827.44;5048429;28;20068;-82
2021/07/26 02:58:40;;;;;;;8.82;4.80;;;;;;;15.32;100.00;95820.34;5046678;28;20487;-83
2021/07/26 03:01:10;;;;;;;9.77;4.00;;;;;;;15.35;100.00;95824.41;5032563;28;20048;-83
2021/07/26 03:03:40;;;;;;;5.63;3.88;;;;;;;15.35;100.00;95818.28;5040181;28;20141;-82
2021/07/26 03:06:13;;;;;;;7.75;4.25;;;;;;;15.28;100.00;95826.22;5032067;28;20194;-82
2021/07/26 03:08:39;;;;;;;6.90;4.32;;;;;;;15.27;100.00;95833.34;5029693;28;20123;-82
2021/07/26 03:11:08;;;;;;;7.60;4.30;;;;;;;15.26;100.00;95836.22;5026998;28;20665;-82
2021/07/26 03:13:34;;;;;;;8.13;3.70;;;;;;;15.24;100.00;95846.16;5039247;28;20431;-82
2021/07/26 03:16:54;;;;;;;6.60;4.13;;;;;;;15.25;100.00;95851.25;5030757;28;20045;-82
2021/07/26 03:19:19;;;;;;;9.57;4.13;;;;;;;15.25;100.00;95858.41;5051353;28;20780;-82
2021/07/26 03:22:34;;;;;;;6.55;3.80;;;;;;;15.22;100.00;95854.31;5050946;28;20032;-82
2021/07/26 03:25:00;;;;;;;10.00;4.45;;;;;;;15.20;100.00;95861.66;4989709;28;20037;-82
2021/07/26 03:27:25;;;;;;;7.22;4.20;;;;;;;15.17;100.00;95853.28;5028075;28;20083;-82
2021/07/26 03:29:51;;;;;;;8.18;4.50;;;;;;;15.08;100.00;95849.97;5053530;28;20043;-82
2021/07/26 03:35:52;;;;;;;7.75;4.05;;;;;;;14.78;100.00;95870.56;5047706;28;20060;-82
2021/07/26 03:38:22;;;;;;;7.85;4.65;;;;;;;14.72;100.00;95871.34;5054214;28;20045;-82
2021/07/26 03:40:48;;;;;;;9.40;4.60;;;;;;;14.77;100.00;95872.41;5048757;28;20029;-82
2021/07/26 03:43:16;;;;;;;6.30;4.15;;;;;;;14.74;100.00;95870.16;5051004;28;20822;-82
2021/07/26 03:45:42;;;;;;;8.48;4.65;;;;;;;14.74;100.00;95870.16;5049030;28;20584;-83
2021/07/26 03:48:07;;;;;;;6.82;4.18;;;;;;;14.79;100.00;95865.09;5052778;28;20021;-83
2021/07/26 03:50:33;;;;;;;9.05;4.88;;;;;;;14.84;100.00;95867.97;5052096;28;20044;-83
2021/07/26 03:52:59;;;;;;;7.25;4.65;;;;;;;14.88;100.00;95860.44;5024785;28;20025;-83
2021/07/26 03:55:30;;;;;;;9.43;4.82;;;;;;;14.90;100.00;95860.28;5039584;28;20040;-82
2021/07/26 03:58:00;;;;;;;9.45;4.65;;;;;;;14.85;100.00;95859.03;5047835;28;20029;-82
2021/07/26 04:00:31;;;;;;;8.85;4.70;;;;;;;14.83;100.00;95861.06;5031510;28;20048;-82
2021/07/26 04:03:16;;;;;;;9.40;5.15;;;;;;;14.87;100.00;95873.91;5039190;28;20034;-83
2021/07/26 04:08:26;;;;;;;13.50;6.07;;;;;;;14.93;100.00;95865.19;5059590;28;20083;-82
2021/07/26 04:11:04;;;;;;;;;;;;;;;14.96;100.00;95867.44;5047766;28;20061;-82
2021/07/26 04:13:36;;;;;;;13.77;4.95;;;;;;;15.00;100.00;95873.97;5051237;28;19936;-82
2021/07/26 04:16:10;;;;;;;9.43;5.10;;;;;;;14.98;100.00;95873.34;5031396;28;20041;-82
2021/07/26 04:18:36;;;;;;;8.90;5.20;;;;;;;14.95;100.00;95871.91;5055426;28;20629;-82
2021/07/26 04:21:08;;;;;;;9.25;6.13;;;;;;;15.03;100.00;95871.75;5033515;28;20139;-82
2021/07/26 04:23:35;;;;;;;10.43;5.43;;;;;;;15.03;100.00;95870.94;5037160;28;20032;-83
2021/07/26 04:26:00;;;;;;;9.02;5.82;;;;;;;15.01;100.00;95868.47;5048938;28;20074;-81
2021/07/26 04:28:36;;;;;;;7.13;5.35;;;;;;;15.06;100.00;95867.91;5060233;28;20068;-82
2021/07/26 04:31:07;;;;;;;9.57;5.25;;;;;;;15.07;100.00;95867.69;5038688;28;20037;-81
2021/07/26 04:33:33;;;;;;;9.20;5.30;;;;;;;15.16;100.00;95859.59;5030556;28;20083;-82
2021/07/26 04:36:01;;;;;;;11.27;5.65;;;;;;;15.21;100.00;95865.91;5028140;28;20022;-81
2021/07/26 04:38:27;;;;;;;8.98;4.95;;;;;;;15.25;100.00;95864.50;5039327;28;20123;-82
2021/07/26 04:40:52;;;;;;;7.15;4.68;;;;;;;15.28;100.00;95869.41;5047733;28;20170;-82
2021/07/26 04:43:18;;;;;;;7.05;5.30;;;;;;;15.26;100.00;95876.75;5030794;28;20032;-82
2021/07/26 04:45:44;;;;;;;11.48;5.43;;;;;;;15.28;100.00;95882.66;5049098;28;20032;-82
2021/07/26 04:48:09;;;;;;;8.68;5.20;;;;;;;15.22;100.00;95877.34;5040882;28;20402;-82
2021/07/26 04:50:35;;;;;;;9.35;5.07;;;;;;;15.27;100.00;95881.03;5035914;28;20056;-82
2021/07/26 04:53:01;;;;;;;7.45;4.57;;;;;;;15.32;100.00;95881.28;5041464;28;20686;-82
2021/07/26 04:55:27;;;;;;;11.07;5.00;;;;;;;15.39;100.00;95872.50;5038380;28;20021;-82
2021/07/26 04:57:52;;;;;;;7.22;4.80;;;;;;;15.42;100.00;95880.06;5034061;28;20029;-82
2021/07/26 05:00:22;;;;;;;7.93;5.25;;;;;;;15.45;100.00;95871.72;5043239;28;20029;-82
2021/07/26 05:02:48;;;;;;;8.23;4.88;;;;;;;15.58;100.00;95877.06;5054194;28;20119;-82
2021/07/26 05:05:14;;;;;;;8.75;5.15;;;;;;;15.58;100.00;95874.41;5038288;28;20050;-82
2021/07/26 05:07:42;;;;;;;10.57;5.13;;;;;;;15.61;100.00;95874.03;5043986;28;20029;-82
2021/07/26 05:10:13;;;;;;;8.02;4.90;;;;;;;15.68;100.00;95879.38;5044246;28;20028;-82
2021/07/26 05:12:40;;;;;;;10.30;5.78;;;;;;;15.75;100.00;95890.81;5036373;28;20082;-81
2021/07/26 05:15:06;;;;;;;9.20;5.95;;;;;;;15.90;100.00;95883.53;5058273;28;20037;-82
2021/07/26 05:17:32;;;;;;;8.73;5.45;;;;;;;15.99;100.00;95889.44;5060097;28;20035;-81
2021/07/26 05:20:02;;;;;;;10.13;5.60;;;;;;;16.04;100.00;95887.00;5046150;28;20245;-80
2021/07/26 05:22:28;;;;;;;10.63;5.88;;;;;;;16.08;100.00;95885.59;5036413;28;20993;-82
2021/07/26 05:24:58;;;;;;;8.00;4.82;;;;;;;16.21;100.00;95890.91;5054150;28;20171;-82
2021/07/26 05:27:28;;;;;;;8.27;5.50;;;;;;;16.35;99.60;95902.34;5056024;28;20032;-81
2021/07/26 05:29:54;;;;;;;8.43;5.18;;;;;;;16.44;98.79;95898.47;5052453;28;20080;-82
2021/07/26 05:32:19;;;;;;;9.75;5.25;;;;;;;16.48;99.14;95889.06;5051813;28;20065;-81
2021/07/26 05:34:47;;;;;;;7.97;5.30;;;;;;;16.44;98.30;95892.34;5053627;28;20040;-82
2021/07/26 05:37:13;;;;;;;10.23;5.68;;;;;;;16.63;98.30;95875.59;5031615;28;20163;-82
2021/07/26 05:39:41;;;;;;;11.73;5.65;;;;;;;16.72;98.15;95879.66;5050672;28;20040;-82
2021/07/26 05:42:10;;;;;;;7.82;4.85;;;;;;;16.92;96.59;95876.19;5038634;28;20033;-82
2021/07/26 05:44:41;;;;;;;8.00;5.30;;;;;;;17.03;96.58;95872.06;5050051;28;20090;-82
2021/07/26 05:47:08;;;;;;;10.02;5.30;;;;;;;17.15;97.02;95868.56;5038140;28;20063;-81
2021/07/26 05:49:34;;;;;;;8.80;5.07;;;;;;;17.17;98.33;95863.88;5050466;28;20636;-82
2021/07/26 05:52:01;;;;;;;9.02;4.93;;;;;;;17.30;97.61;95868.31;5046201;28;20035;-82
2021/07/26 05:54:27;;;;;;;8.88;4.57;;;;;;;17.13;96.86;95878.59;5045578;28;20120;-82
2021/07/26 05:57:09;;;;;;;7.47;4.50;;;;;;;17.01;96.78;95880.28;5050373;28;20098;-81
2021/07/26 06:00:10;;;;;;;8.00;4.32;;;;;;;17.32;95.37;95873.44;5029358;28;20056;-82
2021/07/26 06:03:10;;;;;;;8.13;4.63;;;;;;;18.03;90.66;95862.66;5050161;28;20082;-82
2021/07/26 06:05:36;;;;;;;7.70;4.63;;;;;;;18.14;88.98;95858.47;5026482;28;20549;-82
2021/07/26 06:08:02;;;;;;;11.60;5.07;;;;;;;18.30;89.41;95867.78;5031384;28;20024;-83
2021/07/26 06:10:28;;;;;;;6.00;3.88;;;;;;;19.04;84.63;95863.47;5048976;28;20037;-83
2021/07/26 06:12:55;;;;;;;8.15;4.10;;;;;;;19.38;82.15;95863.91;5039681;28;20471;-82
2021/07/26 06:15:22;;;;;;;7.93;4.40;;;;;;;19.15;82.09;95859.25;5031129;28;20045;-82
2021/07/26 06:17:54;;;;;;;9.38;4.05;;;;;;;19.07;82.78;95866.50;5048428;28;20017;-82
2021/07/26 06:20:19;;;;;;;6.97;3.80;;;;;;;19.51;80.54;95883.22;5049414;28;20554;-82
2021/07/26 06:22:45;;;;;;;7.63;3.78;;;;;;;19.61;81.21;95874.69;5031802;28;20170;-82
2021/07/26 06:25:12;;;;;;;5.10;3.30;;;;;;;19.44;81.95;95869.16;5035621;28;20119;-82
2021/07/26 06:27:41;;;;;;;6.22;3.80;;;;;;;19.43;82.26;95877.41;5028595;28;20020;-83
2021/07/26 06:30:07;;;;;;;8.18;3.65;;;;;;;19.67;82.32;95881.84;5032665;28;20033;-83
2021/07/26 06:32:55;;;;;;;6.65;3.63;;;;;;;19.82;84.28;95877.94;5031261;28;20533;-83
2021/07/26 06:35:21;;;;;;;5.65;3.58;;;;;;;19.87;83.43;95880.75;5035382;28;20326;-82
2021/07/26 06:37:47;;;;;;;5.32;3.28;;;;;;;20.20;82.47;95880.28;5046453;28;20491;-83
2021/07/26 06:40:14;;;;;;;8.32;3.80;;;;;;;20.16;83.34;95887.94;5029984;28;20064;-82
2021/07/26 06:42:40;;;;;;;6.40;4.05;;;;;;;19.92;83.82;95894.22;5037698;28;20091;-82
2021/07/26 06:45:08;;;;;;;6.93;3.70;;;;;;;19.98;83.98;95896.00;5041531;28;20036;-82
2021/07/26 06:47:35;;;;;;;6.20;4.22;;;;;;;20.31;81.18;95895.53;5034805;28;20075;-83
2021/07/26 06:50:00;;;;;;;8.10;3.55;;;;;;;20.48;80.77;95907.16;5079471;28;20087;-82
2021/07/26 06:52:26;;;;;;;8.15;4.53;;;;;;;20.52;79.57;95907.56;5031445;28;20498;-82
2021/07/26 06:54:52;;;;;;;6.65;4.00;;;;;;;20.77;79.33;95910.03;5034210;28;20136;-82
2021/07/26 06:57:18;;;;;;;6.97;3.83;;;;;;;20.51;80.37;95897.91;5048621;28;20495;-82
2021/07/26 06:59:47;;;;;;;6.70;3.70;;;;;;;20.53;81.00;95909.19;5031619;28;20032;-82
2021/07/26 07:02:13;;;;;;;7.30;3.95;;;;;;;20.82;79.61;95906.66;5033352;28;20033;-83
2021/07/26 07:04:40;;;;;;;9.13;3.75;;;;;;;21.80;77.23;95913.09;5048638;28;20375;-83
2021/07/26 07:07:06;;;;;;;7.32;3.80;;;;;;;21.78;73.79;95912.53;5051398;28;20051;-82
2021/07/26 07:09:33;;;;;;;8.98;3.85;;;;;;;22.32;72.89;95903.13;5048684;28;20658;-82
2021/07/26 07:11:59;;;;;;;8.52;3.80;;;;;;;22.24;72.59;95906.19;5051385;28;20453;-83
2021/07/26 07:14:24;;;;;;;7.72;3.40;;;;;;;23.00;64.33;95901.31;5048117;28;20021;-82
2021/07/26 07:16:51;;;;;;;4.60;2.83;;;;;;;23.41;63.21;95906.44;5048542;28;20116;-82
2021/07/26 07:19:17;;;;;;;6.18;3.67;;;;;;;22.99;68.09;95904.22;5053299;28;20426;-83
2021/07/26 07:21:43;;;;;;;5.68;3.50;;;;;;;22.54;68.23;95905.91;5050788;28;20054;-82
2021/07/26 07:24:09;;;;;;;5.75;3.85;;;;;;;22.06;72.72;95911.72;5050019;28;20055;-82
2021/07/26 07:26:35;;;;;;;5.30;3.15;;;;;;;22.22;68.73;95907.47;5050343;28;20029;-83
2021/07/26 07:29:05;;;;;;;5.70;3.85;;;;;;;22.42;68.86;95909.72;5048231;28;20502;-82
2021/07/26 07:31:36;;;;;;;5.60;3.08;;;;;;;22.96;69.39;95912.75;5046866;28;20453;-83
2021/07/26 07:34:04;;;;;;;6.30;3.65;;;;;;;23.22;68.46;95917.44;5051933;28;20081;-82
2021/07/26 07:36:30;;;;;;;8.23;3.60;;;;;;;23.52;67.99;95916.25;5037198;28;20025;-82
2021/07/26 07:38:59;;;;;;;4.85;3.45;;;;;;;23.51;68.08;95914.63;5044285;28;20029;-82
2021/07/26 07:41:26;;;;;;;8.60;3.83;;;;;;;22.72;70.47;95920.94;5047709;28;20644;-82
2021/07/26 07:43:52;;;;;;;5.50;3.58;;;;;;;22.65;69.95;95927.53;5047538;28;20033;-82
2021/07/26 07:46:19;;;;;;;6.53;3.47;;;;;;;22.56;69.85;95927.09;5027971;28;20128;-82
2021/07/26 07:48:46;;;;;;;5.65;3.35;;;;;;;21.85;72.67;95927.38;5036398;28;20510;-82
2021/07/26 07:51:12;;;;;;;6.47;3.42;;;;;;;22.08;70.93;95937.19;5047373;28;20098;-82
2021/07/26 07:53:38;;;;;;;6.40;3.05;;;;;;;21.88;73.02;95942.97;5043858;28;20029;-82
2021/07/26 07:56:06;;;;;;;4.47;2.85;;;;;;;21.91;72.01;95935.53;5046882;28;20028;-82
2021/07/26 07:58:36;;;;;;;6.25;3.70;;;;;;;21.86;72.14;95934.38;5013935;28;20041;-82
2021/07/26 08:01:02;;;;;;;5.70;2.72;;;;;;;22.04;71.04;95932.56;5031913;28;20036;-82
2021/07/26 08:03:28;;;;;;;10.85;3.75;;;;;;;22.02;71.58;95927.44;5024067;28;20040;-82
2021/07/26 08:05:55;;;;;;;5.22;3.30;;;;;;;22.15;72.26;95934.41;5044104;28;20094;-82
2021/07/26 08:08:21;;;;;;;4.82;3.10;;;;;;;22.19;70.76;95937.44;5046178;28;20560;-82
2021/07/26 08:10:48;;;;;;;7.32;3.97;;;;;;;22.05;71.12;95937.69;5043174;28;20053;-82
2021/07/26 08:13:21;;;;;;;5.40;3.40;;;;;;;22.08;73.84;95931.84;5029979;28;20187;-83
2021/07/26 08:15:51;;;;;;;7.10;2.97;;;;;;;22.24;72.05;95934.84;5047682;28;20060;-82
2021/07/26 08:18:18;;;;;;;5.28;3.13;;;;;;;21.78;73.24;95933.94;5041833;28;20067;-82
2021/07/26 08:20:45;;;;;;;7.80;3.90;;;;;;;22.10;71.40;95936.97;5035083;28;20039;-83
2021/07/26 08:23:11;;;;;;;5.80;3.78;;;;;;;21.85;73.14;95938.09;5032851;28;20033;-83
2021/07/26 08:25:38;;;;;;;4.63;3.05;;;;;;;22.07;72.34;95932.91;5030936;28;20039;-82
2021/07/26 08:28:06;;;;;;;8.20;3.70;;;;;;;21.81;72.76;95931.59;5041564;28;20406;-82
2021/07/26 08:30:35;;;;;;;6.43;3.83;;;;;;;21.90;73.78;95942.75;5030086;28;20027;-82
2021/07/26 08:33:01;;;;;;;7.32;4.00;;;;;;;21.45;74.25;95947.97;5037249;28;20515;-82
2021/07/26 08:39:30;;;;;;;5.30;3.35;;;;;;;21.83;73.58;95950.91;5042734;28;20571;-82
2021/07/26 08:41:56;;;;;;;6.65;3.65;;;;;;;22.30;72.33;95950.78;5046751;28;20052;-82
2021/07/26 08:44:22;;;;;;;6.80;3.22;;;;;;;21.98;72.73;95955.75;5044958;28;20052;-82
2021/07/26 08:46:52;;;;;;;7.20;3.72;;;;;;;22.23;70.84;95955.47;5050256;28;20119;-82
2021/07/26 08:49:19;;;;;;;7.00;3.67;;;;;;;22.42;69.58;95953.38;5033807;28;20051;-83
2021/07/26 08:51:46;;;;;;;8.20;3.65;;;;;;;22.44;68.71;95953.16;5040266;28;20957;-83
2021/07/26 08:54:57;;;;;;;6.78;3.83;;;;;;;22.96;68.15;95956.47;5027693;28;20037;-83
2021/07/26 09:03:05;;;;;;;6.00;3.50;;;;;;;22.73;66.54;95953.91;4981593;28;20068;-86
2021/07/26 09:11:04;;;;;;;7.38;3.28;;;;;;;23.81;62.94;95946.44;4932407;28;20398;-87
2021/07/26 09:13:58;;;;;;;7.45;3.30;;;;;;;23.70;63.48;95945.47;4964647;28;20045;-86
2021/07/26 09:16:25;;;;;;;5.60;3.72;;;;;;;23.83;62.99;95948.88;5035917;28;20073;-87
2021/07/26 09:19:10;;;;;;;7.57;3.97;;;;;;;23.22;65.05;95954.19;5043756;28;20611;-86
2021/07/26 09:25:47;;;;;;;8.50;5.78;;;;;;;23.60;65.25;95956.06;5045470;28;20037;-87
2021/07/26 09:28:17;;;;;;;7.50;3.92;;;;;;;22.90;65.28;95960.09;5024422;28;20107;-86
2021/07/26 09:34:59;;;;;;;4.00;2.65;;;;;;;23.16;64.18;95960.53;5058234;28;20094;-87
2021/07/26 09:38:29;;;;;;;6.85;3.67;;;;;;;23.21;63.83;95957.94;5050718;28;20041;-86
2021/07/26 09:40:55;;;;;;;6.82;3.47;;;;;;;24.34;61.76;95960.19;5025347;28;20049;-86
2021/07/26 09:43:24;;;;;;;6.95;4.10;;;;;;;24.94;60.05;95959.97;5069010;28;20036;-86
2021/07/26 09:46:26;;;;;;;5.50;3.47;;;;;;;25.74;57.23;95948.41;5037003;28;20033;-87
2021/07/26 09:49:42;;;;;;;6.65;3.53;;;;;;;25.03;58.36;95949.56;5035999;28;20047;-87
2021/07/26 09:52:23;;;;;;;5.05;3.15;;;;;;;25.92;56.02;95950.66;5043522;28;20056;-86
2021/07/26 09:54:55;;;;;;;6.63;3.10;;;;;;;25.71;56.69;95948.94;5070312;28;20506;-87
2021/07/26 10:01:12;;;;;;;6.25;2.80;;;;;;;27.17;50.56;95944.19;5052617;28;20059;-87
2021/07/26 10:04:16;;;;;;;5.63;3.25;;;;;;;26.71;53.48;95940.66;5055038;28;20095;-87
2021/07/26 10:07:29;;;;;;;7.38;3.78;;;;;;;27.60;49.00;95936.53;4994242;28;20069;-87
2021/07/26 10:17:32;;;;;;;5.22;2.90;;;;;;;30.24;43.65;95934.00;5052259;28;20036;-87
2021/07/26 10:19:58;;;;;;;5.38;2.83;;;;;;;30.07;42.21;95934.47;5063431;28;20124;-87
2021/07/26 10:22:27;;;;;;;3.85;2.63;;;;;;;29.60;43.15;95930.69;5043005;28;20478;-87
2021/07/26 10:25:05;;;;;;;4.55;3.15;;;;;;;28.92;44.62;95930.75;5037280;28;20093;-87
2021/07/26 10:27:34;;;;;;;4.75;2.65;;;;;;;28.93;44.50;95926.94;5037155;28;20522;-87
2021/07/26 10:30:37;;;;;;;5.72;3.05;;;;;;;28.38;43.81;95924.34;5040944;28;20025;-87
2021/07/26 10:33:04;;;;;;;4.78;3.05;;;;;;;27.52;46.46;95926.28;5038764;28;20146;-87
2021/07/26 10:35:38;;;;;;;7.70;3.20;;;;;;;27.58;47.34;95924.38;5056224;28;20030;-87
2021/07/26 10:38:05;;;;;;;6.00;3.08;;;;;;;28.15;44.77;95925.81;5044823;28;20067;-87
2021/07/26 10:40:39;;;;;;;4.43;2.90;;;;;;;27.85;47.21;95932.97;5045186;28;20039;-86
2021/07/26 10:43:15;;;;;;;4.75;2.78;;;;;;;26.66;48.78;95927.13;5055230;28;20062;-86
2021/07/26 10:45:50;;;;;;;4.38;2.60;;;;;;;27.29;47.77;95930.38;5054872;28;20033;-87
2021/07/26 10:48:22;;;;;;;4.38;2.83;;;;;;;27.24;47.83;95925.00;5036131;28;20060;-87
2021/07/26 10:50:56;;;;;;;4.20;2.53;;;;;;;26.00;50.11;95920.53;5030573;28;20035;-86
2021/07/26 10:53:34;;;;;;;5.93;3.45;;;;;;;26.76;50.44;95922.59;5040655;28;20059;-87
2021/07/26 10:56:17;;;;;;;4.88;2.42;;;;;;;26.79;48.70;95919.34;5041213;28;20427;-87
2021/07/26 10:59:01;;;;;;;6.15;2.95;;;;;;;27.43;48.28;95926.06;5036035;28;20363;-87
2021/07/26 11:01:34;;;;;;;7.45;5.15;;;;;;;27.56;46.55;95924.66;5060619;28;20036;-87
2021/07/26 11:03:59;;;;;;;;;;;;;;;27.58;47.40;95911.69;5046892;28;20498;-87
2021/07/26 11:06:37;;;;;;;5.57;3.78;;;;;;;27.74;48.01;95912.44;5051524;28;19915;-87
2021/07/26 11:09:38;;;;;;;4.47;2.45;;;;;;;27.84;46.93;95907.03;5034346;28;20147;-87
2021/07/26 11:12:06;;;;;;;4.55;2.72;;;;;;;28.10;46.37;95906.91;5008987;28;20053;-86
2021/07/26 11:14:32;;;;;;;6.70;2.80;;;;;;;27.96;45.05;95901.28;5055866;28;20098;-86
2021/07/26 11:17:06;;;;;;;5.78;2.70;;;;;;;27.64;45.37;95904.38;5041381;28;20037;-87
2021/07/26 11:19:52;;;;;;;4.30;2.47;;;;;;;26.88;48.49;95900.72;5037463;28;20175;-86
2021/07/26 11:22:21;;;;;;;4.72;2.40;;;;;;;27.68;45.59;95894.63;5033841;28;20483;-86
2021/07/26 11:24:49;;;;;;;5.60;2.92;;;;;;;28.06;43.90;95895.84;5027676;28;20025;-87
2021/07/26 11:27:17;;;;;;;5.65;2.70;;;;;;;28.12;44.17;95899.31;5055561;28;20039;-87
2021/07/26 11:29:44;;;;;;;4.38;2.20;;;;;;;28.70;43.11;95894.09;5062270;28;20497;-87
2021/07/26 11:32:28;;;;;;;4.75;2.60;;;;;;;28.99;42.85;95901.44;5062292;28;20064;-87
2021/07/26 11:34:56;;;;;;;4.68;2.90;;;;;;;29.32;42.38;95892.47;5034120;28;20041;-87
2021/07/26 11:37:36;;;;;;;4.68;2.83;;;;;;;29.80;41.61;95892.50;5037844;28;20072;-87
2021/07/26 11:40:05;;;;;;;6.28;2.88;;;;;;;30.11;41.14;95894.81;5040724;28;20041;-87
2021/07/26 11:42:39;;;;;;;3.95;2.65;;;;;;;30.25;39.37;95889.53;5035971;28;20036;-87
2021/07/26 11:45:07;;;;;;;4.10;2.60;;;;;;;30.39;39.16;95870.59;5030943;28;20033;-87
2021/07/26 11:47:37;;;;;;;5.30;2.75;;;;;;;28.78;42.90;95885.38;5023173;28;20033;-87
2021/07/26 11:50:17;;;;;;;5.45;2.88;;;;;;;30.00;39.96;95874.34;5069677;28;20082;-87
2021/07/26 11:52:57;;;;;;;4.50;2.63;;;;;;;30.83;39.06;95862.03;5043453;28;20040;-87
2021/07/26 11:55:31;;;;;;;4.60;2.65;;;;;;;30.48;38.66;95866.09;5050728;28;20041;-87
2021/07/26 11:58:03;;;;;;;4.97;2.78;;;;;;;30.70;39.06;95860.84;5038795;28;20040;-87
2021/07/26 12:00:31;;;;;;;4.25;2.65;;;;;;;30.60;37.63;95862.94;5043085;28;20036;-87
2021/07/26 12:02:58;;;;;;;3.70;2.33;;;;;;;29.17;39.49;95862.03;5028351;28;20025;-87
2021/07/26 12:05:29;;;;;;;4.43;2.65;;;;;;;29.60;38.93;95863.75;5045040;28;20429;-87
2021/07/26 12:07:55;;;;;;;5.28;3.13;;;;;;;30.62;37.57;95855.28;5050986;28;20103;-87
2021/07/26 12:10:32;;;;;;;5.38;2.88;;;;;;;31.23;36.94;95857.78;5047007;28;20257;-87
2021/07/26 12:13:16;;;;;;;5.95;2.97;;;;;;;31.56;35.74;95860.47;5051371;28;20053;-87
2021/07/26 12:15:45;;;;;;;4.35;2.90;;;;;;;30.93;39.02;95861.88;5052224;28;20104;-87
2021/07/26 12:18:12;;;;;;;7.63;2.75;;;;;;;30.39;38.27;95863.25;5032912;28;20040;-87
2021/07/26 12:20:43;;;;;;;3.80;2.38;;;;;;;30.63;37.75;95865.88;5033755;28;20077;-87
2021/07/26 12:23:43;;;;;;;3.67;2.38;;;;;;;30.69;37.55;95863.88;5052596;28;20028;-87
2021/07/26 12:26:11;;;;;;;6.72;2.47;;;;;;;31.36;36.41;95877.97;5026551;28;20041;-87
2021/07/26 12:28:55;;;;;;;4.07;2.53;;;;;;;30.73;35.68;95873.84;5030273;28;20127;-87
2021/07/26 12:31:26;;;;;;;6.30;2.30;;;;;;;31.39;35.24;95862.97;5043159;28;20045;-87
2021/07/26 12:34:11;;;;;;;5.00;2.47;;;;;;;30.55;35.60;95866.56;5050671;28;20048;-87